Airfield :
LOGIN :

Register | Disclaimer

   EN    FR    IT 

 










Legend :    VFR   Marginal VFR   IFR   Intensive IFR   Very Intensive IFR
Visi :
Ceiling :
>= 8 km
>= 3000ft
5 to 8 km
1000 to 3000 ft
1500m to 5 km
500 to 1000 ft
800 to 1500m
200 to 500 ft
< 800m
< 200 ft
Symbols :   Thunderstorms  Fog  Heavy snow  Heavy precipitations  Wind > 20 kt
SIGMETs :     Misc.  Thunderstorms  Icing  Turbulence  Mountain Waves  Volcanic Ashes







- Airport Elevation : 184 ft
- IATA code : BRU


EBBR - Bruxelles

CURRENT METAR :
  • 241550Z 18011KT 2000 R25L/1700U R25R/1700U R01/1300U TSRA FEW004 BKN030CB 16/14 Q1017 BECMG 9999 NSW

EXPIRED METARs :
  • 241520Z 14015G37KT 100V170 2500 TSRA SCT030CB 17/// Q1016 NOSIG
  • 241450Z VRB02KT 9999 SCT042 23/15 Q1016 TEMPO 4000 SHRA TSRA
  • 241350Z 08005KT 040V130 9999 SCT042 23/14 Q1016 NOSIG
  • 241320Z 09005KT 050V130 9999 FEW040 23/15 Q1017 NOSIG

TAF TAF EBBR
Valid from the 24 at 12:00 until the 25 at 18:00 UTC


241120Z 2412/2518 07005KT 9999 FEW040
TEMPO 2414/2420 VRB15G28KT 3500 TSRA
PROB30
TEMPO 2415/2420 2000 +TSRAGR
PROB30
TEMPO 2420/2424 VRB15G28KT 3500 SHRA TSRA
BECMG 2500/2502 2000 BR BCFG
PROB40 2502/2507 0400 FG BKN001
BECMG 2507/2509 9999 NSW
PROB30
TEMPO 2515/2518 VRB15G25KT 3500 SHRA TSRA
No reported NOTAMs for that airfield.
1 SIGMET reported for the Brussels FIR (EBBU) :
 
Embedded thunderstorms
EBBU SIGMET 01 VALID 241345/241800 EBBR
EBBU BRUSSELS FIR EMBD TS OBS S OF N51 TOP FL350 MOV NW 15KT INTSF=



MET'MAP, your aeronautical weather chart ! - Copyright ORBIFLY December 2007 - Disclaimer

ORBIFLY MET'MAP TEAM :

Programming & Development : Alexandra Zaïnal
Concept & Development : Baudouin d'Aumeries
Co-Development & Prog : Marc-Olivier Méhu
Technical & hardware support : Manuel Goepfert

Contact : metmap@orbifly.com




SOURCES & CREDITS :

   NOAA